sensor_id;sensor_type;location;lat;lon;timestamp;temperature;humidity
59651;DHT22;45954;49.768;8.636;2023-04-03T00:00:44;5.90;99.90
59651;DHT22;45954;49.768;8.636;2023-04-03T00:03:10;5.90;99.90
59651;DHT22;45954;49.768;8.636;2023-04-03T00:05:36;6.00;99.90
59651;DHT22;45954;49.768;8.636;2023-04-03T00:08:02;5.90;99.90
59651;DHT22;45954;49.768;8.636;2023-04-03T00:10:30;5.80;99.90
59651;DHT22;45954;49.768;8.636;2023-04-03T00:12:56;5.90;99.90
59651;DHT22;45954;49.768;8.636;2023-04-03T00:15:21;5.80;99.90
59651;DHT22;45954;49.768;8.636;2023-04-03T00:17:47;5.70;99.90
59651;DHT22;45954;49.768;8.636;2023-04-03T00:20:13;5.70;99.90
59651;DHT22;45954;49.768;8.636;2023-04-03T00:22:39;5.70;99.90
59651;DHT22;45954;49.768;8.636;2023-04-03T00:25:05;5.60;99.90
59651;DHT22;45954;49.768;8.636;2023-04-03T00:27:31;5.40;99.90
59651;DHT22;45954;49.768;8.636;2023-04-03T00:29:57;5.40;99.90
59651;DHT22;45954;49.768;8.636;2023-04-03T00:32:23;5.50;99.90
59651;DHT22;45954;49.768;8.636;2023-04-03T00:34:49;5.50;99.90
59651;DHT22;45954;49.768;8.636;2023-04-03T00:37:15;5.40;99.90
59651;DHT22;45954;49.768;8.636;2023-04-03T00:39:41;5.20;99.90
59651;DHT22;45954;49.768;8.636;2023-04-03T00:42:07;5.30;99.90
59651;DHT22;45954;49.768;8.636;2023-04-03T00:47:00;5.20;99.90
59651;DHT22;45954;49.768;8.636;2023-04-03T00:49:28;5.20;99.90
59651;DHT22;45954;49.768;8.636;2023-04-03T00:51:56;5.20;99.90
59651;DHT22;45954;49.768;8.636;2023-04-03T00:54:23;5.10;99.90
59651;DHT22;45954;49.768;8.636;2023-04-03T00:56:51;5.20;99.90
59651;DHT22;45954;49.768;8.636;2023-04-03T00:59:24;4.90;99.90
59651;DHT22;45954;49.768;8.636;2023-04-03T01:01:53;4.80;99.90
59651;DHT22;45954;49.768;8.636;2023-04-03T01:04:35;4.80;99.90
59651;DHT22;45954;49.768;8.636;2023-04-03T01:07:22;4.90;99.90
59651;DHT22;45954;49.768;8.636;2023-04-03T01:09:55;5.00;99.90
59651;DHT22;45954;49.768;8.636;2023-04-03T01:12:26;4.90;99.90
59651;DHT22;45954;49.768;8.636;2023-04-03T01:14:57;5.00;99.90
59651;DHT22;45954;49.768;8.636;2023-04-03T01:25:36;4.90;99.90
59651;DHT22;45954;49.768;8.636;2023-04-03T01:28:05;4.90;99.90
59651;DHT22;45954;49.768;8.636;2023-04-03T01:33:37;4.90;99.90
59651;DHT22;45954;49.768;8.636;2023-04-03T01:36:05;4.70;99.90
59651;DHT22;45954;49.768;8.636;2023-04-03T01:38:31;4.80;99.90
59651;DHT22;45954;49.768;8.636;2023-04-03T01:40:57;4.70;99.90
59651;DHT22;45954;49.768;8.636;2023-04-03T01:43:23;4.70;99.90
59651;DHT22;45954;49.768;8.636;2023-04-03T01:45:49;4.70;99.90
59651;DHT22;45954;49.768;8.636;2023-04-03T01:48:16;4.60;99.90
59651;DHT22;45954;49.768;8.636;2023-04-03T01:50:42;4.70;99.90
59651;DHT22;45954;49.768;8.636;2023-04-03T01:53:08;4.70;99.90
59651;DHT22;45954;49.768;8.636;2023-04-03T01:55:34;4.70;99.90
59651;DHT22;45954;49.768;8.636;2023-04-03T01:58:00;4.40;99.90
59651;DHT22;45954;49.768;8.636;2023-04-03T02:00:25;4.40;99.90
59651;DHT22;45954;49.768;8.636;2023-04-03T02:02:52;4.50;99.90
59651;DHT22;45954;49.768;8.636;2023-04-03T02:05:18;4.50;99.90
59651;DHT22;45954;49.768;8.636;2023-04-03T02:07:44;4.60;99.90
59651;DHT22;45954;49.768;8.636;2023-04-03T02:10:11;4.50;99.90
59651;DHT22;45954;49.768;8.636;2023-04-03T02:12:37;4.40;99.90
59651;DHT22;45954;49.768;8.636;2023-04-03T02:15:03;4.50;99.90
59651;DHT22;45954;49.768;8.636;2023-04-03T02:17:29;4.30;99.90
59651;DHT22;45954;49.768;8.636;2023-04-03T02:19:55;4.30;99.90
59651;DHT22;45954;49.768;8.636;2023-04-03T02:22:21;4.40;99.90
59651;DHT22;45954;49.768;8.636;2023-04-03T02:24:46;3.90;99.90
59651;DHT22;45954;49.768;8.636;2023-04-03T02:27:12;3.50;99.90
59651;DHT22;45954;49.768;8.636;2023-04-03T02:29:39;3.60;99.90
59651;DHT22;45954;49.768;8.636;2023-04-03T02:32:05;3.90;99.90
59651;DHT22;45954;49.768;8.636;2023-04-03T02:34:31;4.00;99.90
59651;DHT22;45954;49.768;8.636;2023-04-03T02:36:56;4.10;99.90
59651;DHT22;45954;49.768;8.636;2023-04-03T02:39:22;4.10;99.90
59651;DHT22;45954;49.768;8.636;2023-04-03T02:41:48;4.10;99.90
59651;DHT22;45954;49.768;8.636;2023-04-03T02:44:14;4.20;99.90
59651;DHT22;45954;49.768;8.636;2023-04-03T02:46:40;4.20;99.90
59651;DHT22;45954;49.768;8.636;2023-04-03T02:49:06;4.20;99.90
59651;DHT22;45954;49.768;8.636;2023-04-03T02:51:32;4.30;99.90
59651;DHT22;45954;49.768;8.636;2023-04-03T02:53:57;4.10;99.90
59651;DHT22;45954;49.768;8.636;2023-04-03T02:56:23;4.10;99.90
59651;DHT22;45954;49.768;8.636;2023-04-03T02:58:49;4.20;99.90
59651;DHT22;45954;49.768;8.636;2023-04-03T03:01:15;4.20;99.90
59651;DHT22;45954;49.768;8.636;2023-04-03T03:03:41;4.00;99.90
59651;DHT22;45954;49.768;8.636;2023-04-03T03:06:13;4.00;99.90
59651;DHT22;45954;49.768;8.636;2023-04-03T03:08:41;4.00;99.90
59651;DHT22;45954;49.768;8.636;2023-04-03T03:11:07;4.10;99.90
59651;DHT22;45954;49.768;8.636;2023-04-03T03:13:34;4.00;99.90
59651;DHT22;45954;49.768;8.636;2023-04-03T03:16:01;3.90;99.90
59651;DHT22;45954;49.768;8.636;2023-04-03T03:18:28;3.90;99.90
59651;DHT22;45954;49.768;8.636;2023-04-03T03:20:56;3.90;99.90
59651;DHT22;45954;49.768;8.636;2023-04-03T03:23:24;4.00;99.90
59651;DHT22;45954;49.768;8.636;2023-04-03T03:26:06;4.10;99.90
59651;DHT22;45954;49.768;8.636;2023-04-03T03:28:36;4.00;99.90
59651;DHT22;45954;49.768;8.636;2023-04-03T03:31:04;4.00;99.90
59651;DHT22;45954;49.768;8.636;2023-04-03T03:33:31;4.10;99.90
59651;DHT22;45954;49.768;8.636;2023-04-03T03:35:57;3.90;99.90
59651;DHT22;45954;49.768;8.636;2023-04-03T03:38:23;3.90;99.90
59651;DHT22;45954;49.768;8.636;2023-04-03T03:40:50;4.00;99.90
59651;DHT22;45954;49.768;8.636;2023-04-03T03:43:17;3.80;99.90
59651;DHT22;45954;49.768;8.636;2023-04-03T03:45:44;4.00;99.90
59651;DHT22;45954;49.768;8.636;2023-04-03T03:48:11;4.00;99.90
59651;DHT22;45954;49.768;8.636;2023-04-03T03:50:37;4.10;99.90
59651;DHT22;45954;49.768;8.636;2023-04-03T03:53:03;4.10;99.90
59651;DHT22;45954;49.768;8.636;2023-04-03T03:55:28;3.90;99.90
59651;DHT22;45954;49.768;8.636;2023-04-03T03:57:54;4.00;99.90
59651;DHT22;45954;49.768;8.636;2023-04-03T04:00:20;4.00;99.90
59651;DHT22;45954;49.768;8.636;2023-04-03T04:02:46;4.10;99.90
59651;DHT22;45954;49.768;8.636;2023-04-03T04:05:12;4.10;99.90
59651;DHT22;45954;49.768;8.636;2023-04-03T04:07:38;4.00;99.90
59651;DHT22;45954;49.768;8.636;2023-04-03T04:10:05;4.00;99.90
59651;DHT22;45954;49.768;8.636;2023-04-03T04:12:31;4.00;99.90
59651;DHT22;45954;49.768;8.636;2023-04-03T04:14:57;4.10;99.90
59651;DHT22;45954;49.768;8.636;2023-04-03T04:17:23;4.10;99.90
59651;DHT22;45954;49.768;8.636;2023-04-03T04:19:48;4.10;99.90
59651;DHT22;45954;49.768;8.636;2023-04-03T04:22:14;4.10;99.90
59651;DHT22;45954;49.768;8.636;2023-04-03T04:24:40;4.00;99.90
59651;DHT22;45954;49.768;8.636;2023-04-03T04:27:06;4.00;99.90
59651;DHT22;45954;49.768;8.636;2023-04-03T04:29:32;3.80;99.90
59651;DHT22;45954;49.768;8.636;2023-04-03T04:32:02;3.80;99.90
59651;DHT22;45954;49.768;8.636;2023-04-03T04:34:28;3.90;99.90
59651;DHT22;45954;49.768;8.636;2023-04-03T04:36:55;3.70;99.90
59651;DHT22;45954;49.768;8.636;2023-04-03T04:39:21;3.50;99.90
59651;DHT22;45954;49.768;8.636;2023-04-03T04:41:46;3.70;99.90
59651;DHT22;45954;49.768;8.636;2023-04-03T04:44:12;3.60;99.90
59651;DHT22;45954;49.768;8.636;2023-04-03T04:46:38;3.60;99.90
59651;DHT22;45954;49.768;8.636;2023-04-03T04:49:04;3.60;99.90
59651;DHT22;45954;49.768;8.636;2023-04-03T04:51:30;3.60;99.90
59651;DHT22;45954;49.768;8.636;2023-04-03T04:53:56;3.50;99.90
59651;DHT22;45954;49.768;8.636;2023-04-03T04:56:21;3.60;99.90
59651;DHT22;45954;49.768;8.636;2023-04-03T04:58:47;3.80;99.90
59651;DHT22;45954;49.768;8.636;2023-04-03T05:01:13;3.70;99.90
59651;DHT22;45954;49.768;8.636;2023-04-03T05:03:39;3.60;99.90
59651;DHT22;45954;49.768;8.636;2023-04-03T05:06:05;3.50;99.90
59651;DHT22;45954;49.768;8.636;2023-04-03T05:08:32;3.70;99.90
59651;DHT22;45954;49.768;8.636;2023-04-03T05:10:58;3.70;99.90
59651;DHT22;45954;49.768;8.636;2023-04-03T05:13:24;3.90;99.90
59651;DHT22;45954;49.768;8.636;2023-04-03T05:15:50;4.10;99.90
59651;DHT22;45954;49.768;8.636;2023-04-03T05:18:15;4.10;99.90
59651;DHT22;45954;49.768;8.636;2023-04-03T05:20:41;4.00;99.90
59651;DHT22;45954;49.768;8.636;2023-04-03T05:23:10;3.90;99.90
59651;DHT22;45954;49.768;8.636;2023-04-03T05:25:39;3.80;99.90
59651;DHT22;45954;49.768;8.636;2023-04-03T05:28:06;3.90;99.90
59651;DHT22;45954;49.768;8.636;2023-04-03T05:30:32;4.10;99.90
59651;DHT22;45954;49.768;8.636;2023-04-03T05:32:59;4.20;99.90
59651;DHT22;45954;49.768;8.636;2023-04-03T05:35:25;4.10;99.90
59651;DHT22;45954;49.768;8.636;2023-04-03T05:37:51;4.20;99.90
59651;DHT22;45954;49.768;8.636;2023-04-03T05:40:17;4.20;99.90
59651;DHT22;45954;49.768;8.636;2023-04-03T05:42:44;4.30;99.90
59651;DHT22;45954;49.768;8.636;2023-04-03T05:45:10;4.40;99.90
59651;DHT22;45954;49.768;8.636;2023-04-03T05:47:36;4.40;99.90
59651;DHT22;45954;49.768;8.636;2023-04-03T05:50:03;4.50;99.90
59651;DHT22;45954;49.768;8.636;2023-04-03T05:52:33;4.60;99.90
59651;DHT22;45954;49.768;8.636;2023-04-03T05:55:01;4.50;99.90
59651;DHT22;45954;49.768;8.636;2023-04-03T05:57:27;4.50;99.90
59651;DHT22;45954;49.768;8.636;2023-04-03T05:59:53;4.60;99.90
59651;DHT22;45954;49.768;8.636;2023-04-03T06:02:21;4.70;99.90
59651;DHT22;45954;49.768;8.636;2023-04-03T06:04:48;4.80;99.90
59651;DHT22;45954;49.768;8.636;2023-04-03T06:07:16;4.80;99.90
59651;DHT22;45954;49.768;8.636;2023-04-03T06:09:45;4.80;99.90
59651;DHT22;45954;49.768;8.636;2023-04-03T06:12:11;4.90;99.90
59651;DHT22;45954;49.768;8.636;2023-04-03T06:14:37;4.90;99.90
59651;DHT22;45954;49.768;8.636;2023-04-03T06:17:03;5.00;99.90
59651;DHT22;45954;49.768;8.636;2023-04-03T06:19:30;5.00;99.90
59651;DHT22;45954;49.768;8.636;2023-04-03T06:21:56;4.90;99.90
59651;DHT22;45954;49.768;8.636;2023-04-03T06:24:22;4.80;99.90
59651;DHT22;45954;49.768;8.636;2023-04-03T06:26:50;4.90;99.90
59651;DHT22;45954;49.768;8.636;2023-04-03T06:29:17;4.90;99.90
59651;DHT22;45954;49.768;8.636;2023-04-03T06:31:44;4.90;99.90
59651;DHT22;45954;49.768;8.636;2023-04-03T06:34:10;4.80;99.90
59651;DHT22;45954;49.768;8.636;2023-04-03T06:36:38;4.70;99.90
59651;DHT22;45954;49.768;8.636;2023-04-03T06:39:04;4.70;99.90
59651;DHT22;45954;49.768;8.636;2023-04-03T06:41:31;4.80;99.90
59651;DHT22;45954;49.768;8.636;2023-04-03T06:43:57;4.90;99.90
59651;DHT22;45954;49.768;8.636;2023-04-03T06:46:25;4.80;99.90
59651;DHT22;45954;49.768;8.636;2023-04-03T06:48:53;4.70;99.90
59651;DHT22;45954;49.768;8.636;2023-04-03T06:51:20;4.70;99.90
59651;DHT22;45954;49.768;8.636;2023-04-03T06:53:49;4.80;99.90
59651;DHT22;45954;49.768;8.636;2023-04-03T06:56:16;4.90;99.90
59651;DHT22;45954;49.768;8.636;2023-04-03T06:58:43;5.00;99.90
59651;DHT22;45954;49.768;8.636;2023-04-03T07:01:12;5.20;99.90
59651;DHT22;45954;49.768;8.636;2023-04-03T07:03:39;5.20;99.90
59651;DHT22;45954;49.768;8.636;2023-04-03T07:06:07;5.30;99.90
59651;DHT22;45954;49.768;8.636;2023-04-03T07:08:34;5.50;99.90
59651;DHT22;45954;49.768;8.636;2023-04-03T07:11:00;5.50;99.90
59651;DHT22;45954;49.768;8.636;2023-04-03T07:13:26;5.40;99.90
59651;DHT22;45954;49.768;8.636;2023-04-03T07:15:53;5.70;99.90
59651;DHT22;45954;49.768;8.636;2023-04-03T07:18:19;5.80;99.90
59651;DHT22;45954;49.768;8.636;2023-04-03T07:20:45;6.00;99.90
59651;DHT22;45954;49.768;8.636;2023-04-03T07:23:11;5.90;99.90
59651;DHT22;45954;49.768;8.636;2023-04-03T07:25:45;6.00;99.90
59651;DHT22;45954;49.768;8.636;2023-04-03T07:28:13;6.10;99.90
59651;DHT22;45954;49.768;8.636;2023-04-03T07:30:44;6.10;99.90
59651;DHT22;45954;49.768;8.636;2023-04-03T07:33:11;6.10;99.90
59651;DHT22;45954;49.768;8.636;2023-04-03T07:35:39;6.20;99.90
59651;DHT22;45954;49.768;8.636;2023-04-03T07:38:05;6.30;99.90
59651;DHT22;45954;49.768;8.636;2023-04-03T07:40:32;6.40;99.90
59651;DHT22;45954;49.768;8.636;2023-04-03T07:42:59;6.50;99.90
59651;DHT22;45954;49.768;8.636;2023-04-03T07:45:25;6.70;99.90
59651;DHT22;45954;49.768;8.636;2023-04-03T07:47:51;6.70;99.90
59651;DHT22;45954;49.768;8.636;2023-04-03T07:50:18;6.80;99.90
59651;DHT22;45954;49.768;8.636;2023-04-03T07:52:44;6.80;99.90
59651;DHT22;45954;49.768;8.636;2023-04-03T07:55:11;6.90;99.90
59651;DHT22;45954;49.768;8.636;2023-04-03T07:57:37;6.80;99.90
59651;DHT22;45954;49.768;8.636;2023-04-03T08:00:04;6.80;99.90
59651;DHT22;45954;49.768;8.636;2023-04-03T08:02:31;6.80;99.90
59651;DHT22;45954;49.768;8.636;2023-04-03T08:04:59;6.70;99.90
59651;DHT22;45954;49.768;8.636;2023-04-03T08:07:26;6.70;99.90
59651;DHT22;45954;49.768;8.636;2023-04-03T08:09:52;6.60;99.90
59651;DHT22;45954;49.768;8.636;2023-04-03T08:12:18;6.60;99.90
59651;DHT22;45954;49.768;8.636;2023-04-03T08:14:44;6.70;99.90
59651;DHT22;45954;49.768;8.636;2023-04-03T08:17:10;6.60;99.90
59651;DHT22;45954;49.768;8.636;2023-04-03T08:19:40;6.50;99.90
59651;DHT22;45954;49.768;8.636;2023-04-03T08:22:06;6.70;99.90
59651;DHT22;45954;49.768;8.636;2023-04-03T08:24:33;7.00;99.90
59651;DHT22;45954;49.768;8.636;2023-04-03T08:27:00;7.00;99.40
59651;DHT22;45954;49.768;8.636;2023-04-03T08:29:27;7.30;99.90
59651;DHT22;45954;49.768;8.636;2023-04-03T08:31:53;7.40;99.60
59651;DHT22;45954;49.768;8.636;2023-04-03T08:34:19;7.60;99.90
59651;DHT22;45954;49.768;8.636;2023-04-03T08:36:45;7.70;99.30
59651;DHT22;45954;49.768;8.636;2023-04-03T08:39:12;7.70;99.40
59651;DHT22;45954;49.768;8.636;2023-04-03T08:41:41;7.70;98.70
59651;DHT22;45954;49.768;8.636;2023-04-03T08:47:28;7.50;98.10
59651;DHT22;45954;49.768;8.636;2023-04-03T08:50:01;7.50;98.70
59651;DHT22;45954;49.768;8.636;2023-04-03T08:52:48;7.40;98.00
59651;DHT22;45954;49.768;8.636;2023-04-03T08:55:34;7.50;98.00
59651;DHT22;45954;49.768;8.636;2023-04-03T08:58:33;7.30;97.60
59651;DHT22;45954;49.768;8.636;2023-04-03T09:01:21;7.40;98.10
59651;DHT22;45954;49.768;8.636;2023-04-03T09:03:53;7.70;97.30
59651;DHT22;45954;49.768;8.636;2023-04-03T09:06:32;7.80;97.00
59651;DHT22;45954;49.768;8.636;2023-04-03T09:09:41;8.30;96.60
59651;DHT22;45954;49.768;8.636;2023-04-03T09:12:27;8.20;95.60
59651;DHT22;45954;49.768;8.636;2023-04-03T09:23:49;8.00;96.50
59651;DHT22;45954;49.768;8.636;2023-04-03T09:26:25;8.10;96.20
59651;DHT22;45954;49.768;8.636;2023-04-03T09:29:17;8.10;94.60
59651;DHT22;45954;49.768;8.636;2023-04-03T09:31:49;8.10;95.90
59651;DHT22;45954;49.768;8.636;2023-04-03T09:34:39;8.00;96.00
59651;DHT22;45954;49.768;8.636;2023-04-03T09:37:07;8.00;96.00
59651;DHT22;45954;49.768;8.636;2023-04-03T09:39:53;8.10;95.50
59651;DHT22;45954;49.768;8.636;2023-04-03T09:42:24;8.40;95.90
59651;DHT22;45954;49.768;8.636;2023-04-03T09:44:59;8.40;95.40
59651;DHT22;45954;49.768;8.636;2023-04-03T09:47:34;8.40;94.70
59651;DHT22;45954;49.768;8.636;2023-04-03T09:52:50;7.90;95.50
59651;DHT22;45954;49.768;8.636;2023-04-03T09:55:25;7.90;94.50
59651;DHT22;45954;49.768;8.636;2023-04-03T09:58:00;8.30;94.10
59651;DHT22;45954;49.768;8.636;2023-04-03T10:00:37;8.50;94.40
59651;DHT22;45954;49.768;8.636;2023-04-03T10:03:05;8.90;93.20
59651;DHT22;45954;49.768;8.636;2023-04-03T10:05:35;8.70;92.70
59651;DHT22;45954;49.768;8.636;2023-04-03T10:10:40;8.90;92.80
59651;DHT22;45954;49.768;8.636;2023-04-03T10:13:19;9.00;91.20
59651;DHT22;45954;49.768;8.636;2023-04-03T10:15:56;9.30;92.50
59651;DHT22;45954;49.768;8.636;2023-04-03T10:18:41;9.80;91.90
59651;DHT22;45954;49.768;8.636;2023-04-03T10:21:32;10.20;91.90
59651;DHT22;45954;49.768;8.636;2023-04-03T10:24:14;10.30;91.60
59651;DHT22;45954;49.768;8.636;2023-04-03T10:27:24;10.00;91.50
59651;DHT22;45954;49.768;8.636;2023-04-03T10:41:55;9.20;93.40
59651;DHT22;45954;49.768;8.636;2023-04-03T10:44:57;9.00;92.20
59651;DHT22;45954;49.768;8.636;2023-04-03T10:50:42;8.90;93.20
59651;DHT22;45954;49.768;8.636;2023-04-03T10:53:35;9.10;94.40
59651;DHT22;45954;49.768;8.636;2023-04-03T10:56:20;9.20;94.10
59651;DHT22;45954;49.768;8.636;2023-04-03T10:59:13;9.00;93.10
59651;DHT22;45954;49.768;8.636;2023-04-03T11:01:45;9.00;93.00
59651;DHT22;45954;49.768;8.636;2023-04-03T11:04:16;9.00;93.10
59651;DHT22;45954;49.768;8.636;2023-04-03T11:06:51;9.00;93.50
59651;DHT22;45954;49.768;8.636;2023-04-03T11:09:37;9.10;93.00
59651;DHT22;45954;49.768;8.636;2023-04-03T11:12:15;9.00;91.80
59651;DHT22;45954;49.768;8.636;2023-04-03T11:14:47;9.10;92.70
59651;DHT22;45954;49.768;8.636;2023-04-03T11:22:42;9.40;93.10
59651;DHT22;45954;49.768;8.636;2023-04-03T11:28:02;9.40;92.70
59651;DHT22;45954;49.768;8.636;2023-04-03T11:36:55;9.00;93.30
59651;DHT22;45954;49.768;8.636;2023-04-03T11:40:07;9.00;92.90
59651;DHT22;45954;49.768;8.636;2023-04-03T11:42:52;9.00;92.70
59651;DHT22;45954;49.768;8.636;2023-04-03T11:47:57;9.30;92.70
59651;DHT22;45954;49.768;8.636;2023-04-03T11:53:02;9.30;92.30
59651;DHT22;45954;49.768;8.636;2023-04-03T11:58:21;9.50;91.40
59651;DHT22;45954;49.768;8.636;2023-04-03T12:00:57;9.60;91.90
59651;DHT22;45954;49.768;8.636;2023-04-03T12:16:21;10.70;90.00
59651;DHT22;45954;49.768;8.636;2023-04-03T12:27:04;11.60;86.00
59651;DHT22;45954;49.768;8.636;2023-04-03T12:29:47;11.70;82.70
59651;DHT22;45954;49.768;8.636;2023-04-03T12:35:14;11.90;82.70
59651;DHT22;45954;49.768;8.636;2023-04-03T12:38:02;12.40;80.80
59651;DHT22;45954;49.768;8.636;2023-04-03T12:46:45;13.20;76.00
59651;DHT22;45954;49.768;8.636;2023-04-03T12:52:04;13.50;74.30
59651;DHT22;45954;49.768;8.636;2023-04-03T12:54:36;13.00;74.00
59651;DHT22;45954;49.768;8.636;2023-04-03T12:59:41;13.10;74.50
59651;DHT22;45954;49.768;8.636;2023-04-03T13:02:31;13.90;74.90
59651;DHT22;45954;49.768;8.636;2023-04-03T13:05:08;13.50;69.70
59651;DHT22;45954;49.768;8.636;2023-04-03T13:07:37;13.60;72.10
59651;DHT22;45954;49.768;8.636;2023-04-03T13:12:32;14.10;68.40
59651;DHT22;45954;49.768;8.636;2023-04-03T13:15:29;13.50;66.30
59651;DHT22;45954;49.768;8.636;2023-04-03T13:17:56;13.50;68.40
59651;DHT22;45954;49.768;8.636;2023-04-03T13:20:33;13.60;68.20
59651;DHT22;45954;49.768;8.636;2023-04-03T13:23:08;13.60;64.90
59651;DHT22;45954;49.768;8.636;2023-04-03T13:25:41;13.60;68.10
59651;DHT22;45954;49.768;8.636;2023-04-03T13:28:17;13.00;67.90
59651;DHT22;45954;49.768;8.636;2023-04-03T13:33:57;12.70;65.60
59651;DHT22;45954;49.768;8.636;2023-04-03T13:36:45;12.60;65.50
59651;DHT22;45954;49.768;8.636;2023-04-03T13:41:56;12.80;65.90
59651;DHT22;45954;49.768;8.636;2023-04-03T13:44:34;13.10;66.20
59651;DHT22;45954;49.768;8.636;2023-04-03T13:49:40;12.60;63.00
59651;DHT22;45954;49.768;8.636;2023-04-03T13:54:56;13.20;65.50
59651;DHT22;45954;49.768;8.636;2023-04-03T13:57:24;12.80;62.00
59651;DHT22;45954;49.768;8.636;2023-04-03T13:59:51;13.10;66.30
59651;DHT22;45954;49.768;8.636;2023-04-03T14:02:38;13.20;64.00
59651;DHT22;45954;49.768;8.636;2023-04-03T14:05:05;13.70;62.70
59651;DHT22;45954;49.768;8.636;2023-04-03T14:07:34;13.50;61.90
59651;DHT22;45954;49.768;8.636;2023-04-03T14:10:00;13.40;60.80
59651;DHT22;45954;49.768;8.636;2023-04-03T14:12:33;14.30;60.60
59651;DHT22;45954;49.768;8.636;2023-04-03T14:15:18;14.00;60.40
59651;DHT22;45954;49.768;8.636;2023-04-03T14:17:45;14.30;60.10
59651;DHT22;45954;49.768;8.636;2023-04-03T14:20:18;14.60;59.30
59651;DHT22;45954;49.768;8.636;2023-04-03T14:22:46;14.20;58.50
59651;DHT22;45954;49.768;8.636;2023-04-03T14:25:12;14.80;59.60
59651;DHT22;45954;49.768;8.636;2023-04-03T14:27:41;14.50;57.00
59651;DHT22;45954;49.768;8.636;2023-04-03T14:30:19;14.50;59.30
59651;DHT22;45954;49.768;8.636;2023-04-03T14:32:48;15.10;56.90
59651;DHT22;45954;49.768;8.636;2023-04-03T14:35:14;14.70;56.40
59651;DHT22;45954;49.768;8.636;2023-04-03T14:37:41;14.70;57.40
59651;DHT22;45954;49.768;8.636;2023-04-03T14:40:11;14.40;56.40
59651;DHT22;45954;49.768;8.636;2023-04-03T14:42:42;15.60;57.90
59651;DHT22;45954;49.768;8.636;2023-04-03T14:45:11;16.20;57.10
59651;DHT22;45954;49.768;8.636;2023-04-03T14:47:47;16.70;54.70
59651;DHT22;45954;49.768;8.636;2023-04-03T14:50:25;15.80;56.50
59651;DHT22;45954;49.768;8.636;2023-04-03T14:52:55;15.30;57.50
59651;DHT22;45954;49.768;8.636;2023-04-03T14:55:25;15.30;55.30
59651;DHT22;45954;49.768;8.636;2023-04-03T14:57:53;14.90;54.80
59651;DHT22;45954;49.768;8.636;2023-04-03T15:00:21;15.20;57.60
59651;DHT22;45954;49.768;8.636;2023-04-03T15:02:48;16.10;57.20
59651;DHT22;45954;49.768;8.636;2023-04-03T15:05:15;16.30;52.70
59651;DHT22;45954;49.768;8.636;2023-04-03T15:07:44;15.60;54.50
59651;DHT22;45954;49.768;8.636;2023-04-03T15:10:26;15.50;55.10
59651;DHT22;45954;49.768;8.636;2023-04-03T15:12:54;15.90;55.30
59651;DHT22;45954;49.768;8.636;2023-04-03T15:15:22;16.30;53.50
59651;DHT22;45954;49.768;8.636;2023-04-03T15:17:54;16.60;55.00
59651;DHT22;45954;49.768;8.636;2023-04-03T15:20:23;16.00;53.50
59651;DHT22;45954;49.768;8.636;2023-04-03T15:22:51;15.70;52.80
59651;DHT22;45954;49.768;8.636;2023-04-03T15:25:17;15.90;54.60
59651;DHT22;45954;49.768;8.636;2023-04-03T15:27:43;15.70;55.30
59651;DHT22;45954;49.768;8.636;2023-04-03T15:30:16;14.70;55.00
59651;DHT22;45954;49.768;8.636;2023-04-03T15:32:44;14.00;56.10
59651;DHT22;45954;49.768;8.636;2023-04-03T15:35:10;13.80;56.30
59651;DHT22;45954;49.768;8.636;2023-04-03T15:37:37;13.90;56.50
59651;DHT22;45954;49.768;8.636;2023-04-03T15:40:04;14.20;56.20
59651;DHT22;45954;49.768;8.636;2023-04-03T15:42:31;14.80;57.00
59651;DHT22;45954;49.768;8.636;2023-04-03T15:44:57;14.80;55.50
59651;DHT22;45954;49.768;8.636;2023-04-03T15:47:24;15.30;53.50
59651;DHT22;45954;49.768;8.636;2023-04-03T15:49:51;15.70;55.10
59651;DHT22;45954;49.768;8.636;2023-04-03T15:52:17;15.70;54.40
59651;DHT22;45954;49.768;8.636;2023-04-03T15:54:43;14.90;54.80
59651;DHT22;45954;49.768;8.636;2023-04-03T15:57:09;13.90;57.00
59651;DHT22;45954;49.768;8.636;2023-04-03T15:59:34;13.60;57.40
59651;DHT22;45954;49.768;8.636;2023-04-03T16:02:05;13.20;57.90
59651;DHT22;45954;49.768;8.636;2023-04-03T16:04:33;12.30;58.20
59651;DHT22;45954;49.768;8.636;2023-04-03T16:07:03;12.50;58.90
59651;DHT22;45954;49.768;8.636;2023-04-03T16:09:30;13.20;58.40
59651;DHT22;45954;49.768;8.636;2023-04-03T16:11:57;13.70;56.90
59651;DHT22;45954;49.768;8.636;2023-04-03T16:14:23;13.50;57.60
59651;DHT22;45954;49.768;8.636;2023-04-03T16:16:49;13.30;57.20
59651;DHT22;45954;49.768;8.636;2023-04-03T16:19:15;13.10;59.50
59651;DHT22;45954;49.768;8.636;2023-04-03T16:21:41;13.60;58.30
59651;DHT22;45954;49.768;8.636;2023-04-03T16:24:07;13.30;58.70
59651;DHT22;45954;49.768;8.636;2023-04-03T16:26:34;14.00;57.10
59651;DHT22;45954;49.768;8.636;2023-04-03T16:29:00;13.40;57.70
59651;DHT22;45954;49.768;8.636;2023-04-03T16:31:26;13.20;58.90
59651;DHT22;45954;49.768;8.636;2023-04-03T16:33:53;12.70;61.60
59651;DHT22;45954;49.768;8.636;2023-04-03T16:36:20;12.20;59.60
59651;DHT22;45954;49.768;8.636;2023-04-03T16:38:45;11.80;60.90
59651;DHT22;45954;49.768;8.636;2023-04-03T16:41:11;12.00;60.90
59651;DHT22;45954;49.768;8.636;2023-04-03T16:43:37;12.80;59.40
59651;DHT22;45954;49.768;8.636;2023-04-03T16:46:03;13.20;58.20
59651;DHT22;45954;49.768;8.636;2023-04-03T16:48:31;12.90;58.90
59651;DHT22;45954;49.768;8.636;2023-04-03T16:50:58;13.10;59.60
59651;DHT22;45954;49.768;8.636;2023-04-03T16:53:25;12.70;59.60
59651;DHT22;45954;49.768;8.636;2023-04-03T16:55:52;13.00;58.80
59651;DHT22;45954;49.768;8.636;2023-04-03T16:58:18;12.20;59.60
59651;DHT22;45954;49.768;8.636;2023-04-03T17:00:44;11.50;60.80
59651;DHT22;45954;49.768;8.636;2023-04-03T17:03:12;11.20;61.80
59651;DHT22;45954;49.768;8.636;2023-04-03T17:05:38;10.90;62.80
59651;DHT22;45954;49.768;8.636;2023-04-03T17:08:04;10.80;62.10
59651;DHT22;45954;49.768;8.636;2023-04-03T17:10:30;10.80;63.70
59651;DHT22;45954;49.768;8.636;2023-04-03T17:12:56;10.50;64.20
59651;DHT22;45954;49.768;8.636;2023-04-03T17:15:23;10.90;65.20
59651;DHT22;45954;49.768;8.636;2023-04-03T17:17:51;10.70;64.60
59651;DHT22;45954;49.768;8.636;2023-04-03T17:20:18;10.50;65.50
59651;DHT22;45954;49.768;8.636;2023-04-03T17:22:44;10.20;64.30
59651;DHT22;45954;49.768;8.636;2023-04-03T17:25:11;10.30;65.10
59651;DHT22;45954;49.768;8.636;2023-04-03T17:27:37;10.00;65.10
59651;DHT22;45954;49.768;8.636;2023-04-03T17:30:04;9.70;65.70
59651;DHT22;45954;49.768;8.636;2023-04-03T17:32:31;9.40;67.60
59651;DHT22;45954;49.768;8.636;2023-04-03T17:34:57;9.50;69.80
59651;DHT22;45954;49.768;8.636;2023-04-03T17:37:22;9.40;66.30
59651;DHT22;45954;49.768;8.636;2023-04-03T17:39:48;9.30;67.40
59651;DHT22;45954;49.768;8.636;2023-04-03T17:42:14;9.60;69.00
59651;DHT22;45954;49.768;8.636;2023-04-03T17:44:40;9.70;69.70
59651;DHT22;45954;49.768;8.636;2023-04-03T17:47:06;9.30;67.70
59651;DHT22;45954;49.768;8.636;2023-04-03T17:49:32;8.80;67.70
59651;DHT22;45954;49.768;8.636;2023-04-03T17:51:58;8.90;67.70
59651;DHT22;45954;49.768;8.636;2023-04-03T17:54:24;8.60;67.80